createdAt,value
2022-10-25T00:01:27.595Z,100271.59
2022-10-25T00:03:56.076Z,100274.30
2022-10-25T00:06:24.345Z,100273.12
2022-10-25T00:08:52.277Z,100273.65
2022-10-25T00:11:22.889Z,100270.44
2022-10-25T00:13:53.190Z,100272.89
2022-10-25T00:16:25.509Z,100274.45
2022-10-25T00:18:53.912Z,100270.98
2022-10-25T00:21:22.338Z,100263.90
2022-10-25T00:23:50.916Z,100259.23
2022-10-25T00:26:19.966Z,100260.05
2022-10-25T00:28:48.641Z,100261.58
2022-10-25T00:31:17.532Z,100260.46
2022-10-25T00:33:45.701Z,100260.14
2022-10-25T00:36:17.152Z,100254.89
2022-10-25T00:38:46.147Z,100255.61
2022-10-25T00:41:17.862Z,100249.02
2022-10-25T00:43:48.582Z,100250.49
2022-10-25T00:46:23.261Z,100245.52
2022-10-25T00:48:57.588Z,100239.06
2022-10-25T00:51:33.576Z,100234.81
2022-10-25T00:54:01.735Z,100231.29
2022-10-25T00:56:33.518Z,100223.25
2022-10-25T00:59:04.409Z,100223.61
2022-10-25T01:01:32.682Z,100220.77
2022-10-25T01:04:05.008Z,100217.94
2022-10-25T01:07:02.546Z,100220.30
2022-10-25T01:09:32.982Z,100223.80
2022-10-25T01:12:00.912Z,100219.70
2022-10-25T01:14:29.817Z,100209.55
2022-10-25T01:17:19.024Z,100210.27
2022-10-25T01:19:49.921Z,100206.19
2022-10-25T01:22:20.275Z,100202.31
2022-10-25T01:25:09.930Z,100199.77
2022-10-25T01:30:31.238Z,100194.91
2022-10-25T01:32:59.015Z,100188.48
2022-10-25T01:35:30.995Z,100184.73
2022-10-25T01:38:15.401Z,100182.23
2022-10-25T01:40:53.097Z,100176.54
2022-10-25T01:43:51.706Z,100179.78
2022-10-25T01:46:34.739Z,100177.41
2022-10-25T01:49:11.076Z,100175.11
2022-10-25T01:51:39.060Z,100179.85
2022-10-25T01:54:27.805Z,100181.48
2022-10-25T01:57:25.493Z,100181.59
2022-10-25T02:00:14.250Z,100176.45
2022-10-25T02:02:45.324Z,100173.36
2022-10-25T02:05:27.625Z,100175.44
2022-10-25T02:08:08.840Z,100176.58
2022-10-25T02:10:44.010Z,100168.94
2022-10-25T02:13:28.545Z,100170.35
2022-10-25T02:16:23.627Z,100166.29
2022-10-25T02:18:59.173Z,100171.65
2022-10-25T02:21:28.706Z,100173.65
2022-10-25T02:23:59.909Z,100169.51
2022-10-25T02:26:28.186Z,100170.52
2022-10-25T02:28:57.098Z,100168.74
2022-10-25T02:31:26.477Z,100163.35
2022-10-25T02:33:54.345Z,100160.04
2022-10-25T02:36:23.999Z,100157.63
2022-10-25T02:38:53.338Z,100156.24
2022-10-25T02:41:22.405Z,100156.08
2022-10-25T02:43:50.360Z,100148.18
2022-10-25T02:46:20.813Z,100140.44
2022-10-25T02:48:49.692Z,100141.52
2022-10-25T02:51:18.437Z,100142.88
2022-10-25T02:53:46.776Z,100141.89
2022-10-25T02:56:17.926Z,100134.45
2022-10-25T02:58:47.366Z,100133.08
2022-10-25T03:01:17.143Z,100130.79
2022-10-25T03:03:45.279Z,100131.95
2022-10-25T03:06:14.342Z,100128.98
2022-10-25T03:08:42.962Z,100131.23
2022-10-25T03:11:12.464Z,100133.24
2022-10-25T03:13:40.364Z,100132.38
2022-10-25T03:16:08.985Z,100133.11
2022-10-25T03:18:37.315Z,100131.48
2022-10-25T03:21:05.678Z,100130.31
2022-10-25T03:23:33.696Z,100128.67
2022-10-25T03:26:01.580Z,100130.91
2022-10-25T03:28:30.451Z,100133.98
2022-10-25T03:30:59.965Z,100129.68
2022-10-25T03:33:28.165Z,100126.44
2022-10-25T03:35:56.966Z,100126.30
2022-10-25T03:38:24.709Z,100126.72
2022-10-25T03:40:53.521Z,100128.06
2022-10-25T03:45:49.084Z,100136.11
2022-10-25T03:48:16.987Z,100133.58
2022-10-25T03:50:44.903Z,100141.40
2022-10-25T03:53:12.647Z,100136.73
2022-10-25T03:55:40.494Z,100138.31
2022-10-25T03:58:08.162Z,100133.41
2022-10-25T04:00:36.050Z,100138.22
2022-10-25T04:03:04.033Z,100139.52
2022-10-25T04:05:32.457Z,100139.54
2022-10-25T04:08:00.361Z,100140.18
2022-10-25T04:10:28.275Z,100146.68
2022-10-25T04:12:56.039Z,100154.91
2022-10-25T04:15:24.562Z,100151.40
2022-10-25T04:17:53.124Z,100153.84
2022-10-25T04:20:21.719Z,100157.30
2022-10-25T04:22:55.188Z,100157.87
2022-10-25T04:25:25.326Z,100160.30
2022-10-25T04:27:53.614Z,100158.16
2022-10-25T04:30:21.659Z,100160.30
2022-10-25T04:32:49.873Z,100169.40
2022-10-25T04:35:18.092Z,100181.11
2022-10-25T04:37:45.934Z,100181.02
2022-10-25T04:40:13.733Z,100177.34
2022-10-25T04:42:41.675Z,100177.09
2022-10-25T04:45:10.397Z,100178.72
2022-10-25T04:47:38.363Z,100178.39
2022-10-25T04:50:06.915Z,100175.12
2022-10-25T04:52:34.675Z,100177.52
2022-10-25T04:55:02.550Z,100175.13
2022-10-25T04:57:30.722Z,100173.85
2022-10-25T04:59:59.231Z,100181.06
2022-10-25T05:02:27.273Z,100185.79
2022-10-25T05:04:55.117Z,100191.36
2022-10-25T05:07:22.932Z,100194.14
2022-10-25T05:09:50.729Z,100187.91
2022-10-25T05:12:18.491Z,100186.84
2022-10-25T05:14:46.887Z,100191.13
2022-10-25T05:17:14.740Z,100198.07
2022-10-25T05:19:42.550Z,100202.35
2022-10-25T05:22:10.257Z,100207.61
2022-10-25T05:24:37.978Z,100204.18
2022-10-25T05:27:05.726Z,100204.55
2022-10-25T05:29:33.522Z,100203.17
2022-10-25T05:32:01.325Z,100205.48
2022-10-25T05:34:29.320Z,100208.02
2022-10-25T05:36:57.830Z,100213.49
2022-10-25T05:39:25.646Z,100215.49
2022-10-25T05:41:53.481Z,100221.21
2022-10-25T05:44:21.238Z,100221.26
2022-10-25T05:46:49.055Z,100231.09
2022-10-25T05:49:17.172Z,100228.52
2022-10-25T05:51:45.081Z,100228.02
2022-10-25T05:54:15.438Z,100233.26
2022-10-25T05:56:43.751Z,100238.73
2022-10-25T05:59:14.425Z,100244.99
2022-10-25T06:01:45.004Z,100247.40
2022-10-25T06:04:13.806Z,100254.92
2022-10-25T06:06:43.657Z,100251.87
2022-10-25T06:09:12.677Z,100256.02
2022-10-25T06:11:40.997Z,100247.83
2022-10-25T06:14:10.825Z,100244.07
2022-10-25T06:16:39.166Z,100247.81
2022-10-25T06:19:09.071Z,100255.06
2022-10-25T06:21:37.297Z,100267.55
2022-10-25T06:24:05.553Z,100279.75
2022-10-25T06:26:33.515Z,100280.31
2022-10-25T06:29:03.127Z,100268.67
2022-10-25T06:31:32.316Z,100273.02
2022-10-25T06:34:01.313Z,100270.02
2022-10-25T06:36:31.073Z,100273.20
2022-10-25T06:39:05.455Z,100268.63
2022-10-25T06:41:36.930Z,100264.12
2022-10-25T06:44:07.127Z,100263.10
2022-10-25T06:47:04.480Z,100270.70
2022-10-25T06:49:26.256Z,100282.41
2022-10-25T06:51:54.226Z,100289.80
2022-10-25T06:54:22.067Z,100301.52
2022-10-25T06:56:50.071Z,100310.04
2022-10-25T06:59:19.414Z,100306.70
2022-10-25T07:01:47.487Z,100302.45
2022-10-25T07:04:15.804Z,100307.59
2022-10-25T07:06:43.670Z,100306.69
2022-10-25T07:09:13.134Z,100310.55
2022-10-25T07:11:41.290Z,100311.94
2022-10-25T07:14:09.493Z,100320.63
2022-10-25T07:16:37.289Z,100322.08
2022-10-25T07:19:05.227Z,100324.59
2022-10-25T07:21:34.079Z,100320.19
2022-10-25T07:24:02.362Z,100320.74
2022-10-25T07:26:34.925Z,100318.67
2022-10-25T07:29:04.535Z,100310.80
2022-10-25T07:31:41.500Z,100311.60
2022-10-25T07:34:12.812Z,100317.64
2022-10-25T07:36:41.383Z,100335.07
2022-10-25T07:39:09.358Z,100336.21
2022-10-25T07:41:37.102Z,100339.20
2022-10-25T07:44:05.046Z,100339.73
2022-10-25T07:46:32.849Z,100338.52
2022-10-25T07:49:00.630Z,100336.42
2022-10-25T07:51:28.594Z,100334.52
2022-10-25T07:53:56.334Z,100341.37
2022-10-25T07:56:24.113Z,100342.39
2022-10-25T07:58:52.647Z,100353.36
2022-10-25T08:01:23.143Z,100360.56
2022-10-25T08:03:51.868Z,100362.69
2022-10-25T08:06:21.247Z,100369.42
2022-10-25T08:08:49.241Z,100373.88
2022-10-25T08:11:17.696Z,100370.70
2022-10-25T08:13:48.536Z,100378.52
2022-10-25T08:16:16.384Z,100376.33
2022-10-25T08:18:44.516Z,100372.24
2022-10-25T08:21:12.716Z,100356.38
2022-10-25T08:23:40.471Z,100355.06
2022-10-25T08:26:08.514Z,100355.40
2022-10-25T08:28:36.257Z,100365.98
2022-10-25T08:31:04.658Z,100370.86
2022-10-25T08:33:33.421Z,100377.61
2022-10-25T08:36:02.571Z,100390.66
2022-10-25T08:38:30.366Z,100397.70
2022-10-25T08:41:19.137Z,100386.73
2022-10-25T08:44:20.977Z,100393.98
2022-10-25T08:47:29.723Z,100389.89
2022-10-25T08:50:06.618Z,100385.70
2022-10-25T08:52:41.270Z,100379.59
2022-10-25T08:55:16.926Z,100376.58
2022-10-25T08:57:47.608Z,100377.83
2022-10-25T09:00:22.526Z,100379.36
2022-10-25T09:02:54.287Z,100369.89
2022-10-25T09:05:34.580Z,100372.27
2022-10-25T09:08:28.868Z,100373.37
2022-10-25T09:11:15.194Z,100377.77
2022-10-25T09:14:00.160Z,100387.27
2022-10-25T09:16:49.726Z,100396.48
2022-10-25T09:19:21.285Z,100405.44
2022-10-25T09:22:01.809Z,100411.42
2022-10-25T09:24:47.836Z,100408.02
2022-10-25T09:27:27.237Z,100405.40
2022-10-25T09:30:11.910Z,100408.39
2022-10-25T09:32:48.807Z,100406.23
2022-10-25T09:35:53.477Z,100410.53
2022-10-25T09:38:25.730Z,100415.29
2022-10-25T09:40:56.981Z,100411.53
2022-10-25T09:43:35.965Z,100413.89
2022-10-25T09:46:18.921Z,100416.71
2022-10-25T09:48:55.378Z,100412.07
2022-10-25T09:51:36.013Z,100409.58
2022-10-25T09:54:15.147Z,100419.70
2022-10-25T09:56:43.000Z,100423.86
2022-10-25T09:59:14.401Z,100432.73
2022-10-25T10:01:42.648Z,100432.27
2022-10-25T10:04:26.330Z,100438.35
2022-10-25T10:06:59.241Z,100438.83
2022-10-25T10:09:29.954Z,100441.97
2022-10-25T10:12:01.033Z,100438.27
2022-10-25T10:14:40.420Z,100440.70
2022-10-25T10:17:15.460Z,100444.49
2022-10-25T10:19:44.045Z,100445.15
2022-10-25T10:22:16.881Z,100443.45
2022-10-25T10:25:01.744Z,100444.71
2022-10-25T10:27:29.541Z,100445.17
2022-10-25T10:30:06.368Z,100437.34
2022-10-25T10:35:34.017Z,100440.13
2022-10-25T10:38:21.766Z,100442.99
2022-10-25T10:40:52.008Z,100443.48
2022-10-25T10:43:33.991Z,100441.68
2022-10-25T10:46:05.411Z,100440.84
2022-10-25T10:48:42.054Z,100443.95
2022-10-25T10:51:32.070Z,100450.56
2022-10-25T10:54:24.502Z,100455.82
2022-10-25T10:57:00.631Z,100456.49
2022-10-25T10:59:32.866Z,100449.92
2022-10-25T11:02:36.419Z,100448.89
2022-10-25T11:05:28.030Z,100451.67
2022-10-25T11:07:58.214Z,100448.06
2022-10-25T11:10:29.160Z,100455.08
2022-10-25T11:13:22.905Z,100463.00
2022-10-25T11:16:11.876Z,100466.59
2022-10-25T11:18:58.220Z,100471.46
2022-10-25T11:21:49.790Z,100471.58
2022-10-25T11:24:44.966Z,100468.61
2022-10-25T11:27:18.650Z,100465.09
2022-10-25T11:30:08.238Z,100459.80
2022-10-25T11:32:54.889Z,100456.95
2022-10-25T11:35:44.580Z,100456.85
2022-10-25T11:38:21.595Z,100449.71
2022-10-25T11:40:52.423Z,100440.89
2022-10-25T11:43:29.239Z,100434.73
2022-10-25T11:46:02.512Z,100432.56
2022-10-25T11:48:39.270Z,100422.05
2022-10-25T11:51:34.736Z,100418.63
2022-10-25T11:54:27.079Z,100423.54
2022-10-25T11:57:09.955Z,100427.94
2022-10-25T11:59:46.898Z,100437.20
2022-10-25T12:02:36.614Z,100434.33
2022-10-25T12:05:58.886Z,100433.95
2022-10-25T12:08:49.468Z,100441.75
2022-10-25T12:11:24.344Z,100452.92
2022-10-25T12:14:05.117Z,100460.09
2022-10-25T12:16:36.357Z,100465.23
2022-10-25T12:19:09.031Z,100472.17
2022-10-25T12:21:51.294Z,100475.31
2022-10-25T12:24:41.439Z,100481.90
2022-10-25T12:27:11.669Z,100478.45
2022-10-25T12:29:48.228Z,100473.86
2022-10-25T12:32:29.260Z,100467.38
2022-10-25T12:34:59.445Z,100462.21
2022-10-25T12:37:38.126Z,100463.12
2022-10-25T12:40:14.117Z,100461.08
2022-10-25T12:42:47.367Z,100458.98
2022-10-25T12:46:03.515Z,100458.08
2022-10-25T12:49:13.402Z,100465.55
2022-10-25T12:52:11.859Z,100464.27
2022-10-25T12:55:09.927Z,100467.13
2022-10-25T12:57:43.685Z,100472.20
2022-10-25T13:00:22.784Z,100467.94
2022-10-25T13:03:27.794Z,100456.52
2022-10-25T13:06:04.708Z,100455.86
2022-10-25T13:08:33.644Z,100458.36
2022-10-25T13:11:07.871Z,100453.39
2022-10-25T13:13:41.373Z,100449.14
2022-10-25T13:16:10.961Z,100453.14
2022-10-25T13:18:47.580Z,100463.83
2022-10-25T13:21:16.455Z,100465.54
2022-10-25T13:23:45.715Z,100467.42
2022-10-25T13:26:16.825Z,100466.42
2022-10-25T13:28:45.491Z,100463.37
2022-10-25T13:31:35.069Z,100457.30
2022-10-25T13:34:12.078Z,100456.11
2022-10-25T13:36:54.703Z,100463.72
2022-10-25T13:39:42.374Z,100462.20
2022-10-25T13:42:16.211Z,100465.10
2022-10-25T13:45:09.006Z,100464.59
2022-10-25T13:47:48.557Z,100465.60
2022-10-25T13:50:28.584Z,100464.38
2022-10-25T13:53:02.954Z,100454.50
2022-10-25T13:55:37.612Z,100454.73
2022-10-25T13:58:31.738Z,100461.09
2022-10-25T14:01:15.435Z,100467.73
2022-10-25T14:04:01.908Z,100463.38
2022-10-25T14:06:31.649Z,100462.05
2022-10-25T14:09:18.035Z,100464.02
2022-10-25T14:11:52.568Z,100461.85
2022-10-25T14:14:34.955Z,100454.35
2022-10-25T14:17:15.346Z,100451.89
2022-10-25T14:19:50.162Z,100448.94
2022-10-25T14:22:33.676Z,100456.67
2022-10-25T14:25:14.864Z,100455.85
2022-10-25T14:27:42.624Z,100451.21
2022-10-25T14:30:25.289Z,100454.14
2022-10-25T14:32:58.947Z,100450.87
2022-10-25T14:35:35.432Z,100450.12
2022-10-25T14:38:15.266Z,100443.86
2022-10-25T14:40:51.041Z,100445.91
2022-10-25T14:43:24.307Z,100447.09
2022-10-25T14:46:13.658Z,100441.60
2022-10-25T14:48:45.189Z,100441.39
2022-10-25T14:51:25.124Z,100445.89
2022-10-25T14:53:58.884Z,100447.50
2022-10-25T14:56:35.409Z,100453.91
2022-10-25T14:59:06.744Z,100463.80
2022-10-25T15:01:35.382Z,100471.14
2022-10-25T15:04:03.462Z,100470.92
2022-10-25T15:06:32.609Z,100475.95
2022-10-25T15:09:40.809Z,100484.41
2022-10-25T15:12:29.070Z,100485.43
2022-10-25T15:15:18.590Z,100480.28
2022-10-25T15:17:53.356Z,100473.24
2022-10-25T15:20:21.273Z,100471.59
2022-10-25T15:22:50.693Z,100469.33
2022-10-25T15:25:22.148Z,100464.66
2022-10-25T15:27:51.155Z,100459.33
2022-10-25T15:30:41.891Z,100463.39
2022-10-25T15:33:13.249Z,100464.62
2022-10-25T15:35:52.140Z,100475.45
2022-10-25T15:38:20.133Z,100479.56
2022-10-25T15:40:48.837Z,100488.04
2022-10-25T15:43:16.666Z,100490.89
2022-10-25T15:45:46.224Z,100488.59
2022-10-25T15:48:19.318Z,100481.95
2022-10-25T15:50:57.985Z,100477.17
2022-10-25T15:53:25.963Z,100479.34
2022-10-25T15:55:53.914Z,100485.86
2022-10-25T15:58:21.726Z,100495.52
2022-10-25T16:00:52.130Z,100498.09
2022-10-25T16:03:22.197Z,100501.17
2022-10-25T16:05:51.813Z,100497.50
2022-10-25T16:08:19.649Z,100497.68
2022-10-25T16:10:47.762Z,100499.48
2022-10-25T16:13:23.240Z,100504.35
2022-10-25T16:15:51.110Z,100508.20
2022-10-25T16:18:19.111Z,100508.86
2022-10-25T16:20:47.353Z,100508.01
2022-10-25T16:23:15.077Z,100512.08
2022-10-25T16:25:43.221Z,100513.94
2022-10-25T16:28:14.566Z,100518.25
2022-10-25T16:30:43.904Z,100516.27
2022-10-25T16:33:11.726Z,100518.09
2022-10-25T16:35:41.533Z,100517.57
2022-10-25T16:40:38.610Z,100528.63
2022-10-25T16:43:06.420Z,100528.16
2022-10-25T16:45:37.801Z,100529.46
2022-10-25T16:48:06.538Z,100531.27
2022-10-25T16:50:35.239Z,100528.06
2022-10-25T16:53:09.326Z,100527.84
2022-10-25T16:55:37.581Z,100532.69
2022-10-25T16:58:05.423Z,100535.44
2022-10-25T17:00:35.655Z,100536.83
2022-10-25T17:03:03.772Z,100539.14
2022-10-25T17:05:34.974Z,100530.84
2022-10-25T17:08:02.773Z,100530.81
2022-10-25T17:10:30.690Z,100534.89
2022-10-25T17:13:03.264Z,100541.09
2022-10-25T17:15:32.013Z,100544.85
2022-10-25T17:17:59.745Z,100543.27
2022-10-25T17:20:27.789Z,100544.84
2022-10-25T17:22:55.557Z,100541.52
2022-10-25T17:25:23.316Z,100544.69
2022-10-25T17:27:52.506Z,100545.98
2022-10-25T17:30:20.733Z,100545.26
2022-10-25T17:32:48.683Z,100554.48
2022-10-25T17:35:16.550Z,100556.53
2022-10-25T17:37:44.683Z,100554.77
2022-10-25T17:40:18.972Z,100547.54
2022-10-25T17:42:49.557Z,100548.79
2022-10-25T17:45:21.902Z,100548.95
2022-10-25T17:47:50.578Z,100551.50
2022-10-25T17:50:20.195Z,100551.22
2022-10-25T17:52:50.206Z,100554.14
2022-10-25T17:55:18.067Z,100556.53
2022-10-25T17:57:47.180Z,100561.44
2022-10-25T18:00:16.031Z,100559.64
2022-10-25T18:02:50.413Z,100556.80
2022-10-25T18:05:21.139Z,100555.11
2022-10-25T18:07:50.083Z,100545.90
2022-10-25T18:10:18.821Z,100546.55
2022-10-25T18:12:46.954Z,100549.27
2022-10-25T18:15:15.346Z,100551.17
2022-10-25T18:17:46.578Z,100554.75
2022-10-25T18:20:15.064Z,100558.70
2022-10-25T18:22:43.441Z,100556.20
2022-10-25T18:25:11.572Z,100556.13
2022-10-25T18:27:39.493Z,100562.39
2022-10-25T18:30:08.252Z,100559.58
2022-10-25T18:32:36.220Z,100561.79
2022-10-25T18:35:04.518Z,100558.08
2022-10-25T18:37:32.349Z,100560.94
2022-10-25T18:40:00.200Z,100556.59
2022-10-25T18:42:28.237Z,100560.49
2022-10-25T18:44:56.016Z,100555.92
2022-10-25T18:47:23.882Z,100560.23
2022-10-25T18:49:51.702Z,100553.94
2022-10-25T18:52:20.065Z,100553.50
2022-10-25T18:54:48.333Z,100552.41
2022-10-25T18:57:16.214Z,100552.65
2022-10-25T18:59:43.946Z,100553.53
2022-10-25T19:02:12.043Z,100562.90
2022-10-25T19:04:39.870Z,100564.03
2022-10-25T19:07:07.672Z,100562.27
2022-10-25T19:09:35.622Z,100559.34
2022-10-25T19:12:03.483Z,100560.30
2022-10-25T19:14:31.373Z,100560.49
2022-10-25T19:16:59.129Z,100557.77
2022-10-25T19:19:27.117Z,100559.77
2022-10-25T19:21:55.062Z,100563.64
2022-10-25T19:24:23.043Z,100568.33
2022-10-25T19:26:50.893Z,100568.02
2022-10-25T19:29:18.635Z,100569.61
2022-10-25T19:31:46.584Z,100567.41
2022-10-25T19:34:14.383Z,100567.41
2022-10-25T19:36:42.145Z,100569.56
2022-10-25T19:39:10.577Z,100569.20
2022-10-25T19:41:38.306Z,100566.34
2022-10-25T19:44:06.130Z,100568.87
2022-10-25T19:46:33.960Z,100568.06
2022-10-25T19:49:01.857Z,100565.61
2022-10-25T19:51:29.669Z,100564.98
2022-10-25T19:53:57.515Z,100564.70
2022-10-25T19:56:25.326Z,100569.52
2022-10-25T19:58:53.123Z,100569.48
2022-10-25T20:01:28.942Z,100570.23
2022-10-25T20:03:57.945Z,100577.98
2022-10-25T20:06:31.830Z,100580.77
2022-10-25T20:09:01.476Z,100580.84
2022-10-25T20:11:29.524Z,100587.56
2022-10-25T20:14:00.081Z,100587.63
2022-10-25T20:16:29.481Z,100589.79
2022-10-25T20:19:00.245Z,100590.84
2022-10-25T20:21:33.938Z,100590.92
2022-10-25T20:24:05.858Z,100598.30
2022-10-25T20:26:39.126Z,100593.73
2022-10-25T20:29:16.984Z,100592.92
2022-10-25T20:31:48.890Z,100590.92
2022-10-25T20:34:17.644Z,100586.55
2022-10-25T20:36:46.227Z,100588.08
2022-10-25T20:39:14.301Z,100586.40
2022-10-25T20:41:42.329Z,100592.70
2022-10-25T20:44:10.633Z,100595.91
2022-10-25T20:46:38.301Z,100594.84
2022-10-25T20:49:07.514Z,100596.67
2022-10-25T20:51:35.369Z,100598.49
2022-10-25T20:54:09.592Z,100593.61
2022-10-25T20:56:39.302Z,100596.73
2022-10-25T20:59:08.068Z,100611.06
2022-10-25T21:01:36.345Z,100614.38
2022-10-25T21:04:04.675Z,100609.45
2022-10-25T21:06:35.766Z,100611.04
2022-10-25T21:09:03.524Z,100608.77
2022-10-25T21:11:32.689Z,100600.83
2022-10-25T21:14:00.583Z,100596.30
2022-10-25T21:16:28.319Z,100600.02
2022-10-25T21:18:56.173Z,100598.81
2022-10-25T21:21:23.920Z,100597.27
2022-10-25T21:23:55.755Z,100596.13
2022-10-25T21:26:24.070Z,100594.27
2022-10-25T21:28:51.854Z,100592.64
2022-10-25T21:31:19.615Z,100592.45
2022-10-25T21:33:50.058Z,100594.67
2022-10-25T21:36:20.900Z,100588.64
2022-10-25T21:38:48.879Z,100588.98
2022-10-25T21:41:20.733Z,100592.23
2022-10-25T21:43:50.998Z,100591.37
2022-10-25T21:46:20.862Z,100593.36
2022-10-25T21:48:52.693Z,100598.73
2022-10-25T21:51:22.037Z,100600.59
2022-10-25T21:53:49.963Z,100604.05
2022-10-25T21:56:20.121Z,100609.30
2022-10-25T21:58:49.833Z,100610.59
2022-10-25T22:01:20.909Z,100609.64
2022-10-25T22:03:49.214Z,100616.25
2022-10-25T22:06:20.143Z,100613.05
2022-10-25T22:08:48.160Z,100610.27
2022-10-25T22:11:18.424Z,100608.34
2022-10-25T22:13:47.656Z,100606.63
2022-10-25T22:16:19.882Z,100608.77
2022-10-25T22:18:57.756Z,100615.75
2022-10-25T22:21:28.296Z,100614.69
2022-10-25T22:23:56.501Z,100615.20
2022-10-25T22:26:25.949Z,100617.05
2022-10-25T22:28:55.839Z,100618.96
2022-10-25T22:31:24.396Z,100623.27
2022-10-25T22:33:54.702Z,100624.20
2022-10-25T22:36:25.374Z,100623.58
2022-10-25T22:38:53.312Z,100629.59
2022-10-25T22:41:23.193Z,100631.77
2022-10-25T22:43:51.808Z,100637.02
2022-10-25T22:46:25.650Z,100641.65
2022-10-25T22:48:55.406Z,100645.69
2022-10-25T22:51:25.332Z,100645.91
2022-10-25T22:53:53.591Z,100646.16
2022-10-25T22:56:26.661Z,100644.58
2022-10-25T22:58:56.833Z,100644.23
2022-10-25T23:01:30.898Z,100650.38
2022-10-25T23:03:59.984Z,100651.80
2022-10-25T23:06:29.968Z,100650.27
2022-10-25T23:08:59.982Z,100646.86
2022-10-25T23:11:30.060Z,100645.67
2022-10-25T23:13:58.560Z,100649.90
2022-10-25T23:16:27.629Z,100648.08
2022-10-25T23:18:55.845Z,100645.54
2022-10-25T23:21:26.221Z,100648.15
2022-10-25T23:23:56.104Z,100650.58
2022-10-25T23:26:36.378Z,100649.73
2022-10-25T23:29:05.089Z,100654.36
2022-10-25T23:31:32.856Z,100658.91
2022-10-25T23:34:01.006Z,100657.75
2022-10-25T23:36:37.404Z,100657.85
2022-10-25T23:39:07.585Z,100661.00
2022-10-25T23:41:35.660Z,100665.02
2022-10-25T23:44:03.745Z,100665.08
2022-10-25T23:46:31.560Z,100666.10
2022-10-25T23:48:59.322Z,100666.01
2022-10-25T23:51:27.079Z,100665.96
2022-10-25T23:53:54.896Z,100665.41
2022-10-25T23:56:22.756Z,100666.67
2022-10-25T23:58:53.813Z,100669.70
